createdAt,value
2019-01-30T00:01:48.378Z,0.40
2019-01-30T00:04:30.206Z,0.40
2019-01-30T00:07:12.598Z,0.40
2019-01-30T00:09:54.837Z,0.40
2019-01-30T00:12:36.775Z,0.30
2019-01-30T00:15:19.491Z,0.20
2019-01-30T00:18:01.314Z,0.20
2019-01-30T00:20:43.563Z,0.20
2019-01-30T00:23:25.659Z,0.20
2019-01-30T00:26:08.124Z,0.20
2019-01-30T00:28:50.289Z,0.20
2019-01-30T00:31:32.035Z,0.30
2019-01-30T00:34:14.579Z,0.30
2019-01-30T00:36:56.730Z,0.20
2019-01-30T00:39:39.014Z,0.20
2019-01-30T00:42:21.170Z,0.20
2019-01-30T00:45:03.653Z,0.20
2019-01-30T00:47:45.889Z,0.20
2019-01-30T00:50:28.349Z,0.10
2019-01-30T00:53:11.023Z,0.10
2019-01-30T00:55:53.163Z,0.00
2019-01-30T00:58:35.362Z,0.00
2019-01-30T01:01:17.920Z,0.00
2019-01-30T01:03:59.814Z,0.00
2019-01-30T01:06:41.893Z,0.00
2019-01-30T01:09:24.255Z,0.00
2019-01-30T01:12:06.398Z,0.10
2019-01-30T01:14:48.738Z,0.10
2019-01-30T01:17:30.741Z,0.10
2019-01-30T01:20:13.566Z,0.10
2019-01-30T01:22:55.716Z,0.00
2019-01-30T01:25:38.021Z,0.00
2019-01-30T01:28:20.447Z,0.10
2019-01-30T01:31:02.869Z,0.00
2019-01-30T01:33:45.095Z,-0.10
2019-01-30T01:36:27.792Z,0.00
2019-01-30T01:39:10.235Z,-0.10
2019-01-30T01:41:52.746Z,0.00
2019-01-30T01:44:34.739Z,0.00
2019-01-30T01:47:16.999Z,0.00
2019-01-30T01:49:59.859Z,0.00
2019-01-30T01:52:42.413Z,0.00
2019-01-30T01:55:24.602Z,-0.10
2019-01-30T01:58:07.222Z,-0.20
2019-01-30T02:00:49.427Z,-0.20
2019-01-30T02:03:31.518Z,-0.10
2019-01-30T02:06:13.722Z,-0.20
2019-01-30T02:08:55.686Z,-0.20
2019-01-30T02:11:37.636Z,-0.20
2019-01-30T02:14:20.134Z,-0.10
2019-01-30T02:17:02.504Z,-0.20
2019-01-30T02:19:44.286Z,-0.20
2019-01-30T02:22:26.487Z,-0.20
2019-01-30T02:25:08.497Z,-0.20
2019-01-30T02:27:50.919Z,-0.10
2019-01-30T02:30:33.463Z,-0.20
2019-01-30T02:33:15.926Z,-0.20
2019-01-30T02:35:58.141Z,-0.20
2019-01-30T02:38:39.911Z,-0.30
2019-01-30T02:41:22.397Z,-0.20
2019-01-30T02:44:04.720Z,-0.20
2019-01-30T02:46:46.945Z,-0.20
2019-01-30T02:49:28.820Z,-0.20
2019-01-30T02:52:11.803Z,-0.20
2019-01-30T02:54:54.162Z,-0.30
2019-01-30T02:57:36.803Z,-0.20
2019-01-30T03:00:18.965Z,-0.30
2019-01-30T03:03:01.066Z,-0.40
2019-01-30T03:05:43.533Z,-0.30
2019-01-30T03:08:25.938Z,-0.30
2019-01-30T03:11:08.018Z,-0.30
2019-01-30T03:13:50.554Z,-0.30
2019-01-30T03:16:32.535Z,-0.30
2019-01-30T03:19:14.709Z,-0.30
2019-01-30T03:21:56.970Z,-0.30
2019-01-30T03:24:39.522Z,-0.20
2019-01-30T03:27:21.953Z,-0.20
2019-01-30T03:30:04.341Z,-0.20
2019-01-30T03:32:46.137Z,-0.20
2019-01-30T03:35:27.945Z,-0.20
2019-01-30T03:38:09.791Z,-0.20
2019-01-30T03:40:52.316Z,-0.10
2019-01-30T03:43:34.793Z,-0.10
2019-01-30T03:46:17.083Z,0.00
2019-01-30T03:48:58.935Z,0.00
2019-01-30T03:51:41.126Z,0.00
2019-01-30T03:54:23.081Z,0.00
2019-01-30T03:57:05.288Z,0.10
2019-01-30T03:59:47.451Z,0.10
2019-01-30T04:02:29.726Z,0.20
2019-01-30T04:05:12.107Z,0.10
2019-01-30T04:07:54.314Z,0.20
2019-01-30T04:10:36.542Z,0.10
2019-01-30T04:13:18.373Z,0.10
2019-01-30T04:16:00.604Z,0.20
2019-01-30T04:18:42.921Z,0.20
2019-01-30T04:21:24.788Z,0.20
2019-01-30T04:24:07.226Z,0.20
2019-01-30T04:26:49.650Z,0.30
2019-01-30T04:29:31.824Z,0.20
2019-01-30T04:32:14.087Z,0.10
2019-01-30T04:34:56.235Z,0.20
2019-01-30T04:37:38.681Z,0.20
2019-01-30T04:40:21.259Z,0.20
2019-01-30T04:43:03.375Z,0.20
2019-01-30T04:45:46.452Z,0.30
2019-01-30T04:48:28.725Z,0.30
2019-01-30T04:51:11.106Z,0.30
2019-01-30T04:53:52.952Z,0.20
2019-01-30T04:56:35.513Z,0.30
2019-01-30T04:59:17.614Z,0.40
2019-01-30T05:01:59.843Z,0.30
2019-01-30T05:04:42.195Z,0.30
2019-01-30T05:07:24.639Z,0.30
2019-01-30T05:10:06.437Z,0.40
2019-01-30T05:12:49.005Z,0.30
2019-01-30T05:15:31.021Z,0.30
2019-01-30T05:18:13.018Z,0.30
2019-01-30T05:20:56.189Z,0.20
2019-01-30T05:23:38.334Z,0.20
2019-01-30T05:26:21.680Z,0.20
2019-01-30T05:29:03.689Z,0.20
2019-01-30T05:31:46.364Z,0.20
2019-01-30T05:34:28.679Z,0.20
2019-01-30T05:37:10.608Z,0.30
2019-01-30T05:39:52.720Z,0.30
2019-01-30T05:42:35.153Z,0.40
2019-01-30T05:45:17.746Z,0.40
2019-01-30T05:47:59.917Z,0.40
2019-01-30T05:50:42.415Z,0.40
2019-01-30T05:53:25.071Z,0.30
2019-01-30T05:56:07.155Z,0.30
2019-01-30T05:58:49.439Z,0.30
2019-01-30T06:01:31.613Z,0.30
2019-01-30T06:04:13.935Z,0.30
2019-01-30T06:06:56.038Z,0.30
2019-01-30T06:09:38.082Z,0.30
2019-01-30T06:12:20.455Z,0.30
2019-01-30T06:15:02.826Z,0.40
2019-01-30T06:17:45.149Z,0.50
2019-01-30T06:20:27.217Z,0.60
2019-01-30T06:23:09.066Z,0.50
2019-01-30T06:25:51.164Z,0.40
2019-01-30T06:28:33.506Z,0.40
2019-01-30T06:31:16.307Z,0.30
2019-01-30T06:33:58.174Z,0.30
2019-01-30T06:36:40.656Z,0.40
2019-01-30T06:39:22.947Z,0.40
2019-01-30T06:42:05.132Z,0.50
2019-01-30T06:44:47.174Z,0.50
2019-01-30T06:47:29.108Z,0.50
2019-01-30T06:50:11.703Z,0.50
2019-01-30T06:52:53.963Z,0.50
2019-01-30T06:55:36.439Z,0.50
2019-01-30T06:58:18.627Z,0.50
2019-01-30T07:01:00.963Z,0.50
2019-01-30T07:03:43.896Z,0.50
2019-01-30T07:06:26.223Z,0.50
2019-01-30T07:09:08.794Z,0.60
2019-01-30T07:11:51.091Z,0.60
2019-01-30T07:14:33.077Z,0.70
2019-01-30T07:17:13.819Z,0.60
2019-01-30T07:20:03.770Z,0.60
2019-01-30T07:22:53.577Z,0.60
2019-01-30T07:28:42.588Z,0.60
2019-01-30T07:31:51.871Z,0.60
2019-01-30T07:35:00.949Z,0.70
2019-01-30T07:37:50.683Z,0.80
2019-01-30T07:40:40.427Z,0.80
2019-01-30T07:43:49.615Z,0.70
2019-01-30T07:49:47.761Z,0.70
2019-01-30T07:52:37.401Z,0.60
2019-01-30T07:55:19.922Z,0.70
2019-01-30T07:58:02.299Z,0.70
2019-01-30T08:00:44.872Z,0.80
2019-01-30T08:03:26.751Z,0.80
2019-01-30T08:06:08.575Z,0.80
2019-01-30T08:08:50.730Z,0.80
2019-01-30T08:11:33.131Z,0.80
2019-01-30T08:14:16.081Z,0.80
2019-01-30T08:16:58.035Z,0.90
2019-01-30T08:19:40.075Z,0.90
2019-01-30T08:22:22.263Z,0.90
2019-01-30T08:25:05.007Z,0.90
2019-01-30T08:27:47.225Z,1.00
2019-01-30T08:30:29.467Z,1.00
2019-01-30T08:33:11.768Z,1.00
2019-01-30T08:35:54.133Z,1.00
2019-01-30T08:38:36.127Z,1.00
2019-01-30T08:41:18.521Z,1.10
2019-01-30T08:44:00.588Z,1.10
2019-01-30T08:46:43.273Z,1.10
2019-01-30T08:49:25.577Z,1.10
2019-01-30T08:52:08.124Z,1.20
2019-01-30T08:57:35.040Z,1.20
2019-01-30T09:00:17.059Z,1.20
2019-01-30T09:02:59.502Z,1.30
2019-01-30T09:05:41.653Z,1.30
2019-01-30T09:08:24.166Z,1.30
2019-01-30T09:11:06.123Z,1.40
2019-01-30T09:13:48.483Z,1.40
2019-01-30T09:16:30.413Z,1.40
2019-01-30T09:19:12.937Z,1.50
2019-01-30T09:21:55.515Z,1.50
2019-01-30T09:24:38.286Z,1.50
2019-01-30T09:27:20.695Z,1.50
2019-01-30T09:30:03.107Z,1.60
2019-01-30T09:32:47.218Z,1.70
2019-01-30T09:35:29.133Z,1.70
2019-01-30T09:38:11.442Z,1.70
2019-01-30T09:40:53.363Z,1.80
2019-01-30T09:43:36.127Z,1.80
2019-01-30T09:46:18.086Z,1.80
2019-01-30T09:49:00.539Z,1.80
2019-01-30T09:51:42.623Z,1.90
2019-01-30T09:54:24.586Z,1.80
2019-01-30T09:57:07.060Z,1.90
2019-01-30T09:59:49.054Z,1.90
2019-01-30T10:02:31.401Z,2.00
2019-01-30T10:05:13.278Z,2.10
2019-01-30T10:07:55.514Z,2.20
2019-01-30T10:10:37.492Z,2.20
2019-01-30T10:13:19.778Z,2.30
2019-01-30T10:16:02.048Z,2.30
2019-01-30T10:18:44.281Z,2.30
2019-01-30T10:21:26.622Z,2.40
2019-01-30T10:24:08.413Z,2.50
2019-01-30T10:26:50.742Z,2.50
2019-01-30T10:29:32.896Z,2.60
2019-01-30T10:32:15.317Z,2.60
2019-01-30T10:34:57.671Z,2.60
2019-01-30T10:37:40.044Z,2.70
2019-01-30T10:40:22.625Z,2.70
2019-01-30T10:43:05.350Z,2.80
2019-01-30T10:45:47.961Z,2.80
2019-01-30T10:48:30.033Z,2.90
2019-01-30T10:51:12.119Z,2.90
2019-01-30T10:53:54.439Z,2.90
2019-01-30T10:56:37.036Z,2.90
2019-01-30T10:59:19.310Z,3.00
2019-01-30T11:02:01.888Z,2.90
2019-01-30T11:04:44.291Z,3.00
2019-01-30T11:07:26.279Z,3.00
2019-01-30T11:10:08.323Z,3.00
2019-01-30T11:12:50.405Z,3.10
2019-01-30T11:15:32.739Z,3.10
2019-01-30T11:18:14.854Z,3.10
2019-01-30T11:20:56.662Z,3.20
2019-01-30T11:23:38.871Z,3.30
2019-01-30T11:26:21.174Z,3.30
2019-01-30T11:29:03.350Z,3.40
2019-01-30T11:31:46.069Z,3.50
2019-01-30T11:34:28.338Z,3.50
2019-01-30T11:37:10.783Z,3.60
2019-01-30T11:39:52.966Z,3.60
2019-01-30T11:42:35.629Z,3.70
2019-01-30T11:45:17.767Z,3.70
2019-01-30T11:47:59.715Z,3.80
2019-01-30T11:50:42.183Z,3.80
2019-01-30T11:53:24.541Z,3.70
2019-01-30T11:56:06.625Z,3.70
2019-01-30T11:58:48.981Z,3.70
2019-01-30T12:01:32.095Z,3.80
2019-01-30T12:04:18.120Z,3.80
2019-01-30T12:06:58.860Z,3.80
2019-01-30T12:09:40.843Z,3.90
2019-01-30T12:12:22.762Z,3.90
2019-01-30T12:15:05.353Z,3.90
2019-01-30T12:17:47.843Z,3.90
2019-01-30T12:20:30.527Z,3.80
2019-01-30T12:23:12.853Z,3.80
2019-01-30T12:25:55.533Z,3.70
2019-01-30T12:28:37.503Z,3.80
2019-01-30T12:31:19.762Z,3.90
2019-01-30T12:34:02.075Z,3.90
2019-01-30T12:36:44.177Z,3.90
2019-01-30T12:39:26.041Z,3.90
2019-01-30T12:42:08.034Z,3.90
2019-01-30T12:44:50.407Z,3.90
2019-01-30T12:47:21.003Z,3.90
2019-01-30T12:49:51.583Z,4.00
2019-01-30T12:52:22.169Z,4.00
2019-01-30T12:54:52.789Z,4.10
2019-01-30T12:57:23.457Z,4.00
2019-01-30T12:59:54.246Z,4.00
2019-01-30T13:02:43.974Z,3.90
2019-01-30T13:05:33.739Z,4.00
2019-01-30T13:08:23.426Z,3.90
2019-01-30T13:11:13.058Z,3.90
2019-01-30T13:17:32.342Z,3.90
2019-01-30T13:23:51.717Z,3.80
2019-01-30T13:26:41.408Z,3.80
2019-01-30T13:36:17.206Z,3.80
2019-01-30T13:42:42.762Z,3.80
2019-01-30T13:49:02.101Z,3.80
2019-01-30T13:51:51.734Z,3.80
2019-01-30T13:54:41.423Z,3.80
2019-01-30T13:57:23.943Z,3.80
2019-01-30T14:00:06.430Z,3.80
2019-01-30T14:02:48.178Z,3.80
2019-01-30T14:05:30.649Z,3.80
2019-01-30T14:08:12.937Z,3.80
2019-01-30T14:10:55.060Z,3.80
2019-01-30T14:13:37.668Z,3.80
2019-01-30T14:16:20.187Z,3.80
2019-01-30T14:19:02.033Z,3.80
2019-01-30T14:21:44.825Z,3.80
2019-01-30T14:24:26.522Z,3.80
2019-01-30T14:27:08.855Z,3.80
2019-01-30T14:29:58.175Z,3.70
2019-01-30T14:32:35.305Z,3.70
2019-01-30T14:35:17.247Z,3.70
2019-01-30T14:37:59.282Z,3.70
2019-01-30T14:40:42.755Z,3.70
2019-01-30T14:43:25.185Z,3.60
2019-01-30T14:46:07.233Z,3.60
2019-01-30T14:48:49.171Z,3.60
2019-01-30T14:51:31.077Z,3.60
2019-01-30T14:54:13.415Z,3.60
2019-01-30T14:56:55.698Z,3.60
2019-01-30T14:59:38.119Z,3.60
2019-01-30T15:02:20.067Z,3.60
2019-01-30T15:05:02.336Z,3.60
2019-01-30T15:07:44.151Z,3.60
2019-01-30T15:10:26.438Z,3.50
2019-01-30T15:13:08.575Z,3.50
2019-01-30T15:15:50.564Z,3.50
2019-01-30T15:18:32.216Z,3.50
2019-01-30T15:21:14.725Z,3.50
2019-01-30T15:23:57.400Z,3.50
2019-01-30T15:26:39.771Z,3.50
2019-01-30T15:29:21.711Z,3.50
2019-01-30T15:32:03.731Z,3.50
2019-01-30T15:34:46.130Z,3.40
2019-01-30T15:37:28.674Z,3.40
2019-01-30T15:40:11.041Z,3.40
2019-01-30T15:42:53.491Z,3.40
2019-01-30T15:45:35.346Z,3.40
2019-01-30T15:48:18.096Z,3.40
2019-01-30T15:51:00.170Z,3.40
2019-01-30T15:53:42.329Z,3.40
2019-01-30T15:56:24.670Z,3.30
2019-01-30T15:59:06.542Z,3.30
2019-01-30T16:01:48.433Z,3.30
2019-01-30T16:04:30.482Z,3.30
2019-01-30T16:07:12.174Z,3.30
2019-01-30T16:09:54.494Z,3.30
2019-01-30T16:12:36.949Z,3.30
2019-01-30T16:15:20.467Z,3.30
2019-01-30T16:18:02.544Z,3.30
2019-01-30T16:20:45.847Z,3.30
2019-01-30T16:23:28.686Z,3.30
2019-01-30T16:26:10.635Z,3.20
2019-01-30T16:28:52.809Z,3.20
2019-01-30T16:31:34.976Z,3.20
2019-01-30T16:34:17.138Z,3.20
2019-01-30T16:36:59.186Z,3.20
2019-01-30T16:39:41.249Z,3.20
2019-01-30T16:42:23.518Z,3.20
2019-01-30T16:45:05.859Z,3.20
2019-01-30T16:47:47.855Z,3.10
2019-01-30T16:50:30.483Z,3.10
2019-01-30T16:53:12.807Z,3.10
2019-01-30T16:55:55.107Z,3.10
2019-01-30T16:58:37.490Z,3.00
2019-01-30T17:01:19.345Z,3.10
2019-01-30T17:04:01.159Z,3.10
2019-01-30T17:06:43.922Z,3.00
2019-01-30T17:09:26.015Z,3.00
2019-01-30T17:12:08.369Z,3.00
2019-01-30T17:14:50.906Z,3.10
2019-01-30T17:17:33.179Z,3.10
2019-01-30T17:20:15.663Z,3.10
2019-01-30T17:22:57.745Z,3.10
2019-01-30T17:25:40.344Z,3.10
2019-01-30T17:28:22.406Z,3.10
2019-01-30T17:31:04.285Z,3.10
2019-01-30T17:33:46.441Z,3.10
2019-01-30T17:36:28.306Z,3.10
2019-01-30T17:39:10.478Z,3.10
2019-01-30T17:41:52.538Z,3.10
2019-01-30T17:44:34.705Z,3.20
2019-01-30T17:47:16.948Z,3.20
2019-01-30T17:49:59.391Z,3.20
2019-01-30T17:52:41.680Z,3.10
2019-01-30T17:55:26.217Z,3.10
2019-01-30T17:58:08.206Z,3.10
2019-01-30T18:00:54.748Z,3.10
2019-01-30T18:03:36.591Z,3.00
2019-01-30T18:06:29.191Z,3.00
2019-01-30T18:09:02.859Z,3.00
2019-01-30T18:11:45.149Z,3.00
2019-01-30T18:14:27.045Z,3.00
2019-01-30T18:17:09.255Z,3.00
2019-01-30T18:19:51.922Z,3.10
2019-01-30T18:22:34.067Z,3.10
2019-01-30T18:25:16.265Z,3.10
2019-01-30T18:27:58.025Z,3.10
2019-01-30T18:30:40.094Z,3.10
2019-01-30T18:33:22.128Z,3.10
2019-01-30T18:36:04.762Z,3.10
2019-01-30T18:38:46.933Z,3.00
2019-01-30T18:41:29.196Z,3.10
2019-01-30T18:44:11.717Z,3.10
2019-01-30T18:46:53.648Z,3.00
2019-01-30T18:49:36.206Z,3.00
2019-01-30T18:52:18.035Z,3.00
2019-01-30T18:54:59.799Z,3.00
2019-01-30T18:57:42.676Z,3.00
2019-01-30T19:00:24.673Z,2.90
2019-01-30T19:03:06.936Z,2.90
2019-01-30T19:05:48.944Z,2.90
2019-01-30T19:08:31.588Z,2.90
2019-01-30T19:11:13.745Z,2.90
2019-01-30T19:13:55.475Z,2.90
2019-01-30T19:16:40.432Z,2.80
2019-01-30T19:19:24.121Z,2.70
2019-01-30T19:22:06.458Z,2.70
2019-01-30T19:24:49.008Z,2.70
2019-01-30T19:27:31.393Z,2.70
2019-01-30T19:30:14.877Z,2.70
2019-01-30T19:32:59.959Z,2.70
2019-01-30T19:35:42.572Z,2.70
2019-01-30T19:38:26.939Z,2.70
2019-01-30T19:41:10.118Z,2.70
2019-01-30T19:43:52.750Z,2.70
2019-01-30T19:46:35.431Z,2.70
2019-01-30T19:49:18.013Z,2.70
2019-01-30T19:52:00.073Z,2.60
2019-01-30T19:54:42.170Z,2.60
2019-01-30T20:00:08.350Z,2.60
2019-01-30T20:02:50.120Z,2.70
2019-01-30T20:05:32.443Z,2.60
2019-01-30T20:08:14.798Z,2.70
2019-01-30T20:10:57.271Z,2.60
2019-01-30T20:13:39.975Z,2.60
2019-01-30T20:16:22.112Z,2.60
2019-01-30T20:19:04.685Z,2.60
2019-01-30T20:21:47.729Z,2.50
2019-01-30T20:24:29.806Z,2.50
2019-01-30T20:27:12.238Z,2.50
2019-01-30T20:29:54.722Z,2.40
2019-01-30T20:32:36.846Z,2.40
2019-01-30T20:35:18.801Z,2.40
2019-01-30T20:38:01.287Z,2.40
2019-01-30T20:40:43.431Z,2.40
2019-01-30T20:43:25.359Z,2.40
2019-01-30T20:46:07.294Z,2.40
2019-01-30T20:48:51.837Z,2.40
2019-01-30T20:51:33.607Z,2.40
2019-01-30T20:54:15.633Z,2.40
2019-01-30T20:56:57.563Z,2.40
2019-01-30T20:59:39.905Z,2.30
2019-01-30T21:02:21.878Z,2.30
2019-01-30T21:05:04.029Z,2.30
2019-01-30T21:07:45.940Z,2.30
2019-01-30T21:10:28.403Z,2.30
2019-01-30T21:13:10.572Z,2.30
2019-01-30T21:15:52.930Z,2.30
2019-01-30T21:18:35.458Z,2.40
2019-01-30T21:21:17.533Z,2.30
2019-01-30T21:24:00.129Z,2.40
2019-01-30T21:26:42.683Z,2.40
2019-01-30T21:29:24.606Z,2.30
2019-01-30T21:32:06.727Z,2.30
2019-01-30T21:34:49.236Z,2.30
2019-01-30T21:37:31.926Z,2.30
2019-01-30T21:40:14.584Z,2.30
2019-01-30T21:42:56.850Z,2.30
2019-01-30T21:45:39.167Z,2.30
2019-01-30T21:48:21.414Z,2.30
2019-01-30T21:51:03.817Z,2.20
2019-01-30T21:53:46.455Z,2.20
2019-01-30T21:56:28.899Z,2.20
2019-01-30T21:59:11.611Z,2.20
2019-01-30T22:01:54.201Z,2.20
2019-01-30T22:04:36.237Z,2.20
2019-01-30T22:07:18.434Z,2.20
2019-01-30T22:10:00.189Z,2.20
2019-01-30T22:12:42.195Z,2.10
2019-01-30T22:15:24.182Z,2.20
2019-01-30T22:18:06.515Z,2.20
2019-01-30T22:20:48.869Z,2.20
2019-01-30T22:23:30.815Z,2.20
2019-01-30T22:26:13.198Z,2.30
2019-01-30T22:28:55.241Z,2.20
2019-01-30T22:31:37.617Z,2.20
2019-01-30T22:34:19.613Z,2.30
2019-01-30T22:37:01.471Z,2.30
2019-01-30T22:39:43.531Z,2.30
2019-01-30T22:42:26.138Z,2.30
2019-01-30T22:45:08.758Z,2.30
2019-01-30T22:47:51.451Z,2.30
2019-01-30T22:50:34.147Z,2.40
2019-01-30T22:53:16.883Z,2.40
2019-01-30T22:55:59.191Z,2.30
2019-01-30T22:58:40.992Z,2.30
2019-01-30T23:01:25.334Z,2.30
2019-01-30T23:04:07.492Z,2.30
2019-01-30T23:06:49.614Z,2.30
2019-01-30T23:09:31.765Z,2.30
2019-01-30T23:12:13.562Z,2.30
2019-01-30T23:14:56.074Z,2.20
2019-01-30T23:17:37.945Z,2.20
2019-01-30T23:20:22.852Z,2.20
2019-01-30T23:23:04.467Z,2.30
2019-01-30T23:25:47.067Z,2.30
2019-01-30T23:28:29.375Z,2.30
2019-01-30T23:31:11.939Z,2.20
2019-01-30T23:33:54.131Z,2.20
2019-01-30T23:36:35.999Z,2.20
2019-01-30T23:39:18.246Z,2.10
2019-01-30T23:42:00.116Z,2.10
2019-01-30T23:44:42.819Z,2.00
2019-01-30T23:47:24.770Z,2.00
2019-01-30T23:50:06.738Z,1.90
2019-01-30T23:52:49.650Z,1.80
2019-01-30T23:55:32.230Z,1.90
2019-01-30T23:58:14.633Z,1.80
